sensor_id;sensor_type;location;lat;lon;timestamp;P1;P2;P0
68698;PMS7003;55680;48.850;2.310;2022-08-19T00:01:47;19.50;14.25;8.25
68698;PMS7003;55680;48.850;2.310;2022-08-19T00:04:14;15.50;12.50;8.50
68698;PMS7003;55680;48.850;2.310;2022-08-19T00:06:42;19.50;12.00;8.25
68698;PMS7003;55680;48.850;2.310;2022-08-19T00:09:10;14.25;10.25;8.00
68698;PMS7003;55680;48.850;2.310;2022-08-19T00:11:36;12.75;9.75;7.50
68698;PMS7003;55680;48.850;2.310;2022-08-19T00:14:02;11.50;9.00;6.00
68698;PMS7003;55680;48.850;2.310;2022-08-19T00:16:29;13.25;11.50;7.75
68698;PMS7003;55680;48.850;2.310;2022-08-19T00:18:54;12.50;10.25;8.00
68698;PMS7003;55680;48.850;2.310;2022-08-19T00:21:20;13.25;9.25;7.00
68698;PMS7003;55680;48.850;2.310;2022-08-19T00:23:46;13.50;10.25;8.00
68698;PMS7003;55680;48.850;2.310;2022-08-19T00:26:12;11.00;6.50;5.25
68698;PMS7003;55680;48.850;2.310;2022-08-19T00:28:37;13.25;12.00;8.00
68698;PMS7003;55680;48.850;2.310;2022-08-19T00:31:04;14.50;11.00;6.75
68698;PMS7003;55680;48.850;2.310;2022-08-19T00:33:30;9.25;9.25;6.25
68698;PMS7003;55680;48.850;2.310;2022-08-19T00:35:59;13.50;10.00;7.00
68698;PMS7003;55680;48.850;2.310;2022-08-19T00:38:25;8.50;6.50;4.00
68698;PMS7003;55680;48.850;2.310;2022-08-19T00:40:51;11.25;9.25;6.50
68698;PMS7003;55680;48.850;2.310;2022-08-19T00:43:21;18.50;11.75;7.25
68698;PMS7003;55680;48.850;2.310;2022-08-19T00:45:47;7.75;5.75;3.00
68698;PMS7003;55680;48.850;2.310;2022-08-19T00:48:14;15.25;9.75;5.00
68698;PMS7003;55680;48.850;2.310;2022-08-19T00:50:41;10.25;8.00;5.25
68698;PMS7003;55680;48.850;2.310;2022-08-19T00:53:08;12.25;12.25;8.75
68698;PMS7003;55680;48.850;2.310;2022-08-19T00:55:35;10.75;9.50;6.00
68698;PMS7003;55680;48.850;2.310;2022-08-19T00:58:05;9.75;8.00;4.00
68698;PMS7003;55680;48.850;2.310;2022-08-19T01:00:32;14.75;12.25;8.50
68698;PMS7003;55680;48.850;2.310;2022-08-19T01:03:01;11.25;11.25;8.25
68698;PMS7003;55680;48.850;2.310;2022-08-19T01:05:27;12.75;11.75;7.00
68698;PMS7003;55680;48.850;2.310;2022-08-19T01:07:54;14.25;8.75;7.25
68698;PMS7003;55680;48.850;2.310;2022-08-19T01:10:21;14.75;10.25;7.25
68698;PMS7003;55680;48.850;2.310;2022-08-19T01:12:50;18.75;13.00;7.75
68698;PMS7003;55680;48.850;2.310;2022-08-19T01:15:19;13.00;11.00;8.00
68698;PMS7003;55680;48.850;2.310;2022-08-19T01:17:46;16.00;10.00;8.25
68698;PMS7003;55680;48.850;2.310;2022-08-19T01:20:13;9.00;9.00;6.00
68698;PMS7003;55680;48.850;2.310;2022-08-19T01:22:52;16.50;10.50;6.75
68698;PMS7003;55680;48.850;2.310;2022-08-19T01:25:21;14.75;12.00;9.00
68698;PMS7003;55680;48.850;2.310;2022-08-19T01:27:51;13.00;10.75;7.75
68698;PMS7003;55680;48.850;2.310;2022-08-19T01:30:20;15.75;10.00;7.00
68698;PMS7003;55680;48.850;2.310;2022-08-19T01:32:51;14.75;11.75;8.75
68698;PMS7003;55680;48.850;2.310;2022-08-19T01:35:17;10.75;10.75;9.00
68698;PMS7003;55680;48.850;2.310;2022-08-19T01:37:53;14.00;12.75;7.50
68698;PMS7003;55680;48.850;2.310;2022-08-19T01:40:21;13.75;10.25;7.25
68698;PMS7003;55680;48.850;2.310;2022-08-19T01:42:49;9.00;9.00;6.00
68698;PMS7003;55680;48.850;2.310;2022-08-19T01:45:15;8.75;8.25;6.50
68698;PMS7003;55680;48.850;2.310;2022-08-19T01:47:40;15.00;10.00;6.50
68698;PMS7003;55680;48.850;2.310;2022-08-19T01:50:07;14.75;12.50;9.50
68698;PMS7003;55680;48.850;2.310;2022-08-19T01:52:35;13.50;11.75;7.50
68698;PMS7003;55680;48.850;2.310;2022-08-19T01:55:03;11.75;8.75;6.00
68698;PMS7003;55680;48.850;2.310;2022-08-19T01:57:29;17.25;10.25;5.75
68698;PMS7003;55680;48.850;2.310;2022-08-19T01:59:54;13.75;11.50;7.00
68698;PMS7003;55680;48.850;2.310;2022-08-19T02:02:20;10.50;9.00;6.25
68698;PMS7003;55680;48.850;2.310;2022-08-19T02:04:45;16.25;10.50;8.00
68698;PMS7003;55680;48.850;2.310;2022-08-19T02:07:11;11.50;11.50;8.00
68698;PMS7003;55680;48.850;2.310;2022-08-19T02:09:36;16.50;14.00;7.75
68698;PMS7003;55680;48.850;2.310;2022-08-19T02:12:02;12.00;7.00;6.00
68698;PMS7003;55680;48.850;2.310;2022-08-19T02:14:28;18.25;9.50;5.00
68698;PMS7003;55680;48.850;2.310;2022-08-19T02:16:53;14.75;10.25;6.00
68698;PMS7003;55680;48.850;2.310;2022-08-19T02:19:19;17.75;11.25;9.25
68698;PMS7003;55680;48.850;2.310;2022-08-19T02:21:44;10.25;7.75;4.00
68698;PMS7003;55680;48.850;2.310;2022-08-19T02:24:10;13.75;12.50;8.00
68698;PMS7003;55680;48.850;2.310;2022-08-19T02:26:37;16.25;12.00;7.50
68698;PMS7003;55680;48.850;2.310;2022-08-19T02:29:02;16.00;14.00;9.50
68698;PMS7003;55680;48.850;2.310;2022-08-19T02:31:28;15.00;14.00;8.50
68698;PMS7003;55680;48.850;2.310;2022-08-19T02:33:54;16.75;12.50;7.00
68698;PMS7003;55680;48.850;2.310;2022-08-19T02:36:20;13.50;13.50;9.25
68698;PMS7003;55680;48.850;2.310;2022-08-19T02:38:46;8.25;7.75;7.00
68698;PMS7003;55680;48.850;2.310;2022-08-19T02:41:15;10.00;10.00;6.50
68698;PMS7003;55680;48.850;2.310;2022-08-19T02:43:45;15.00;13.00;8.00
68698;PMS7003;55680;48.850;2.310;2022-08-19T02:46:17;9.00;9.00;6.25
68698;PMS7003;55680;48.850;2.310;2022-08-19T02:48:49;19.50;13.50;8.00
68698;PMS7003;55680;48.850;2.310;2022-08-19T02:51:20;15.25;11.25;8.00
68698;PMS7003;55680;48.850;2.310;2022-08-19T02:53:54;15.25;12.00;7.00
68698;PMS7003;55680;48.850;2.310;2022-08-19T02:56:21;9.50;9.50;6.00
68698;PMS7003;55680;48.850;2.310;2022-08-19T02:58:47;14.75;11.75;7.75
68698;PMS7003;55680;48.850;2.310;2022-08-19T03:01:30;10.75;10.50;6.00
68698;PMS7003;55680;48.850;2.310;2022-08-19T03:03:58;13.50;9.25;6.75
68698;PMS7003;55680;48.850;2.310;2022-08-19T03:06:25;12.25;10.00;8.25
68698;PMS7003;55680;48.850;2.310;2022-08-19T03:08:50;16.75;13.50;8.75
68698;PMS7003;55680;48.850;2.310;2022-08-19T03:11:17;13.50;13.00;8.75
68698;PMS7003;55680;48.850;2.310;2022-08-19T03:13:50;9.75;6.25;1.75
68698;PMS7003;55680;48.850;2.310;2022-08-19T03:16:16;7.50;7.50;6.00
68698;PMS7003;55680;48.850;2.310;2022-08-19T03:18:45;16.25;10.25;6.25
68698;PMS7003;55680;48.850;2.310;2022-08-19T03:21:15;20.25;14.50;9.00
68698;PMS7003;55680;48.850;2.310;2022-08-19T03:23:41;14.25;8.00;6.00
68698;PMS7003;55680;48.850;2.310;2022-08-19T03:26:07;15.75;12.50;8.50
68698;PMS7003;55680;48.850;2.310;2022-08-19T03:28:32;13.25;9.75;7.00
68698;PMS7003;55680;48.850;2.310;2022-08-19T03:31:03;16.50;12.75;8.75
68698;PMS7003;55680;48.850;2.310;2022-08-19T03:33:31;17.75;14.75;8.00
68698;PMS7003;55680;48.850;2.310;2022-08-19T03:36:05;12.50;10.00;6.00
68698;PMS7003;55680;48.850;2.310;2022-08-19T03:38:33;17.00;12.00;7.00
68698;PMS7003;55680;48.850;2.310;2022-08-19T03:41:05;12.00;11.75;8.00
68698;PMS7003;55680;48.850;2.310;2022-08-19T03:43:33;13.75;9.00;6.50
68698;PMS7003;55680;48.850;2.310;2022-08-19T03:46:00;8.50;7.75;5.25
68698;PMS7003;55680;48.850;2.310;2022-08-19T03:48:29;9.25;8.25;6.25
68698;PMS7003;55680;48.850;2.310;2022-08-19T03:50:55;13.50;7.50;2.25
68698;PMS7003;55680;48.850;2.310;2022-08-19T03:53:21;10.00;10.00;5.00
68698;PMS7003;55680;48.850;2.310;2022-08-19T03:55:46;14.00;8.00;5.25
68698;PMS7003;55680;48.850;2.310;2022-08-19T03:58:12;8.00;7.50;5.50
68698;PMS7003;55680;48.850;2.310;2022-08-19T04:00:37;12.00;11.00;6.75
68698;PMS7003;55680;48.850;2.310;2022-08-19T04:03:02;10.50;9.00;7.00
68698;PMS7003;55680;48.850;2.310;2022-08-19T04:05:28;16.50;11.25;6.50
68698;PMS7003;55680;48.850;2.310;2022-08-19T04:07:54;9.75;9.25;6.25
68698;PMS7003;55680;48.850;2.310;2022-08-19T04:10:23;10.50;10.50;7.25
68698;PMS7003;55680;48.850;2.310;2022-08-19T04:12:49;8.00;8.00;6.25
68698;PMS7003;55680;48.850;2.310;2022-08-19T04:15:14;10.00;9.25;7.00
68698;PMS7003;55680;48.850;2.310;2022-08-19T04:17:40;14.00;10.00;8.00
68698;PMS7003;55680;48.850;2.310;2022-08-19T04:20:05;7.25;6.75;4.00
68698;PMS7003;55680;48.850;2.310;2022-08-19T04:22:31;9.00;6.00;2.00
68698;PMS7003;55680;48.850;2.310;2022-08-19T04:24:56;9.00;6.75;5.50
68698;PMS7003;55680;48.850;2.310;2022-08-19T04:27:22;5.00;3.75;1.75
68698;PMS7003;55680;48.850;2.310;2022-08-19T04:29:47;4.50;4.00;2.50
68698;PMS7003;55680;48.850;2.310;2022-08-19T04:32:13;7.50;6.00;4.50
68698;PMS7003;55680;48.850;2.310;2022-08-19T04:34:40;4.00;4.00;2.50
68698;PMS7003;55680;48.850;2.310;2022-08-19T04:37:07;4.50;4.50;2.75
68698;PMS7003;55680;48.850;2.310;2022-08-19T04:39:36;10.50;5.00;4.00
68698;PMS7003;55680;48.850;2.310;2022-08-19T04:42:21;7.00;5.00;4.00
68698;PMS7003;55680;48.850;2.310;2022-08-19T04:45:05;7.00;5.25;3.75
68698;PMS7003;55680;48.850;2.310;2022-08-19T04:47:31;6.25;4.75;3.75
68698;PMS7003;55680;48.850;2.310;2022-08-19T04:49:57;4.50;3.00;1.00
68698;PMS7003;55680;48.850;2.310;2022-08-19T04:52:23;6.00;6.00;3.25
68698;PMS7003;55680;48.850;2.310;2022-08-19T04:54:48;4.50;3.25;3.00
68698;PMS7003;55680;48.850;2.310;2022-08-19T04:57:14;6.50;4.50;2.50
68698;PMS7003;55680;48.850;2.310;2022-08-19T04:59:40;5.00;4.00;2.00
68698;PMS7003;55680;48.850;2.310;2022-08-19T05:02:06;2.00;2.00;1.00
68698;PMS7003;55680;48.850;2.310;2022-08-19T05:04:32;2.00;2.00;2.00
68698;PMS7003;55680;48.850;2.310;2022-08-19T05:06:58;6.25;4.50;2.50
68698;PMS7003;55680;48.850;2.310;2022-08-19T05:09:25;5.00;5.00;2.00
68698;PMS7003;55680;48.850;2.310;2022-08-19T05:11:50;4.00;4.00;3.00
68698;PMS7003;55680;48.850;2.310;2022-08-19T05:14:17;7.75;4.75;3.75
68698;PMS7003;55680;48.850;2.310;2022-08-19T05:16:44;4.00;4.00;2.00
68698;PMS7003;55680;48.850;2.310;2022-08-19T05:19:09;3.50;2.00;1.75
68698;PMS7003;55680;48.850;2.310;2022-08-19T05:21:53;6.25;3.25;2.00
68698;PMS7003;55680;48.850;2.310;2022-08-19T05:24:37;5.25;3.00;2.00
68698;PMS7003;55680;48.850;2.310;2022-08-19T05:27:03;7.00;3.75;3.75
68698;PMS7003;55680;48.850;2.310;2022-08-19T05:29:30;9.25;6.25;3.25
68698;PMS7003;55680;48.850;2.310;2022-08-19T05:31:56;5.00;4.50;2.00
68698;PMS7003;55680;48.850;2.310;2022-08-19T05:34:23;11.25;5.50;4.00
68698;PMS7003;55680;48.850;2.310;2022-08-19T05:36:51;5.50;4.00;2.00
68698;PMS7003;55680;48.850;2.310;2022-08-19T05:39:21;5.00;4.00;2.00
68698;PMS7003;55680;48.850;2.310;2022-08-19T05:41:47;2.00;2.00;1.00
68698;PMS7003;55680;48.850;2.310;2022-08-19T05:44:15;5.00;5.00;4.00
68698;PMS7003;55680;48.850;2.310;2022-08-19T05:46:43;4.25;3.00;2.25
68698;PMS7003;55680;48.850;2.310;2022-08-19T05:49:11;4.00;3.25;3.00
68698;PMS7003;55680;48.850;2.310;2022-08-19T05:51:37;1.00;1.00;1.00
68698;PMS7003;55680;48.850;2.310;2022-08-19T05:54:03;5.25;5.25;3.00
68698;PMS7003;55680;48.850;2.310;2022-08-19T05:56:30;2.00;2.00;2.00
68698;PMS7003;55680;48.850;2.310;2022-08-19T05:58:56;0.75;0.75;0.75
68698;PMS7003;55680;48.850;2.310;2022-08-19T06:01:23;2.50;2.50;2.00
68698;PMS7003;55680;48.850;2.310;2022-08-19T06:03:49;5.00;4.00;3.00
68698;PMS7003;55680;48.850;2.310;2022-08-19T06:06:17;4.75;3.00;2.00
68698;PMS7003;55680;48.850;2.310;2022-08-19T06:08:43;3.00;3.00;1.75
68698;PMS7003;55680;48.850;2.310;2022-08-19T06:13:42;3.00;3.00;2.75
68698;PMS7003;55680;48.850;2.310;2022-08-19T06:16:08;4.25;2.75;1.75
68698;PMS7003;55680;48.850;2.310;2022-08-19T06:18:34;5.00;5.00;3.00
68698;PMS7003;55680;48.850;2.310;2022-08-19T06:20:59;3.00;3.00;2.00
68698;PMS7003;55680;48.850;2.310;2022-08-19T06:23:28;3.75;2.25;1.50
68698;PMS7003;55680;48.850;2.310;2022-08-19T06:25:54;4.00;4.00;3.00
68698;PMS7003;55680;48.850;2.310;2022-08-19T06:28:19;5.00;3.25;2.25
68698;PMS7003;55680;48.850;2.310;2022-08-19T06:30:45;2.75;2.75;2.00
68698;PMS7003;55680;48.850;2.310;2022-08-19T06:33:11;5.00;5.00;3.00
68698;PMS7003;55680;48.850;2.310;2022-08-19T06:35:40;3.50;3.00;2.50
68698;PMS7003;55680;48.850;2.310;2022-08-19T06:38:06;4.00;4.00;2.75
68698;PMS7003;55680;48.850;2.310;2022-08-19T06:40:32;2.00;2.00;1.00
68698;PMS7003;55680;48.850;2.310;2022-08-19T06:42:57;2.50;2.50;2.00
68698;PMS7003;55680;48.850;2.310;2022-08-19T06:45:24;4.00;4.00;2.00
68698;PMS7003;55680;48.850;2.310;2022-08-19T06:47:51;3.00;3.00;2.00
68698;PMS7003;55680;48.850;2.310;2022-08-19T06:50:19;5.50;3.75;2.00
68698;PMS7003;55680;48.850;2.310;2022-08-19T06:52:44;1.50;1.50;0.50
68698;PMS7003;55680;48.850;2.310;2022-08-19T06:55:10;3.00;2.00;1.00
68698;PMS7003;55680;48.850;2.310;2022-08-19T06:57:35;4.00;4.00;2.00
68698;PMS7003;55680;48.850;2.310;2022-08-19T07:00:00;4.00;4.00;2.25
68698;PMS7003;55680;48.850;2.310;2022-08-19T07:02:26;2.75;2.50;1.50
68698;PMS7003;55680;48.850;2.310;2022-08-19T07:04:52;3.00;3.00;1.50
68698;PMS7003;55680;48.850;2.310;2022-08-19T07:07:18;3.50;2.50;1.25
68698;PMS7003;55680;48.850;2.310;2022-08-19T07:09:44;4.75;2.75;2.00
68698;PMS7003;55680;48.850;2.310;2022-08-19T07:12:10;6.00;3.00;2.00
68698;PMS7003;55680;48.850;2.310;2022-08-19T07:14:38;1.00;1.00;1.00
68698;PMS7003;55680;48.850;2.310;2022-08-19T07:17:05;4.00;3.00;2.00
68698;PMS7003;55680;48.850;2.310;2022-08-19T07:19:32;4.25;2.75;2.25
68698;PMS7003;55680;48.850;2.310;2022-08-19T07:21:58;2.25;2.25;2.00
68698;PMS7003;55680;48.850;2.310;2022-08-19T07:24:27;4.00;3.50;1.50
68698;PMS7003;55680;48.850;2.310;2022-08-19T07:26:54;1.75;1.00;1.00
68698;PMS7003;55680;48.850;2.310;2022-08-19T07:29:20;3.75;2.00;1.75
68698;PMS7003;55680;48.850;2.310;2022-08-19T07:31:48;3.00;3.00;2.00
68698;PMS7003;55680;48.850;2.310;2022-08-19T07:34:16;1.00;1.00;1.00
68698;PMS7003;55680;48.850;2.310;2022-08-19T07:36:43;2.25;2.25;2.00
68698;PMS7003;55680;48.850;2.310;2022-08-19T07:39:11;2.00;2.00;1.00
68698;PMS7003;55680;48.850;2.310;2022-08-19T07:41:41;2.00;2.00;1.75
68698;PMS7003;55680;48.850;2.310;2022-08-19T07:44:07;4.50;1.25;1.00
68698;PMS7003;55680;48.850;2.310;2022-08-19T07:46:34;3.00;2.25;1.50
68698;PMS7003;55680;48.850;2.310;2022-08-19T07:49:02;1.00;1.00;1.00
68698;PMS7003;55680;48.850;2.310;2022-08-19T07:51:28;4.75;3.00;1.75
68698;PMS7003;55680;48.850;2.310;2022-08-19T07:53:54;2.50;1.50;0.00
68698;PMS7003;55680;48.850;2.310;2022-08-19T07:56:20;1.25;1.25;1.00
68698;PMS7003;55680;48.850;2.310;2022-08-19T07:58:47;2.50;1.00;1.00
68698;PMS7003;55680;48.850;2.310;2022-08-19T08:01:15;1.75;1.50;1.00
68698;PMS7003;55680;48.850;2.310;2022-08-19T08:03:45;1.25;1.25;0.75
68698;PMS7003;55680;48.850;2.310;2022-08-19T08:06:29;1.75;1.25;1.00
68698;PMS7003;55680;48.850;2.310;2022-08-19T08:09:14;3.00;1.00;1.00
68698;PMS7003;55680;48.850;2.310;2022-08-19T08:11:53;0.00;0.00;0.00
68698;PMS7003;55680;48.850;2.310;2022-08-19T08:14:26;2.75;1.50;0.00
68698;PMS7003;55680;48.850;2.310;2022-08-19T08:16:53;1.00;1.00;1.00
68698;PMS7003;55680;48.850;2.310;2022-08-19T08:19:20;3.75;2.00;1.00
68698;PMS7003;55680;48.850;2.310;2022-08-19T08:21:47;1.50;1.50;1.00
68698;PMS7003;55680;48.850;2.310;2022-08-19T08:24:12;3.00;1.00;0.00
68698;PMS7003;55680;48.850;2.310;2022-08-19T08:26:38;4.50;1.50;1.00
68698;PMS7003;55680;48.850;2.310;2022-08-19T08:29:04;0.75;0.75;0.00
68698;PMS7003;55680;48.850;2.310;2022-08-19T08:31:30;2.50;1.00;1.00
68698;PMS7003;55680;48.850;2.310;2022-08-19T08:33:55;1.00;1.00;0.25
68698;PMS7003;55680;48.850;2.310;2022-08-19T08:36:21;1.00;1.00;1.00
68698;PMS7003;55680;48.850;2.310;2022-08-19T08:38:46;2.00;2.00;1.00
68698;PMS7003;55680;48.850;2.310;2022-08-19T08:41:30;0.75;0.75;0.75
68698;PMS7003;55680;48.850;2.310;2022-08-19T08:44:05;1.50;1.50;1.00
68698;PMS7003;55680;48.850;2.310;2022-08-19T08:46:35;1.50;1.50;1.00
68698;PMS7003;55680;48.850;2.310;2022-08-19T08:52:00;1.75;1.75;1.00
68698;PMS7003;55680;48.850;2.310;2022-08-19T08:54:33;1.00;1.00;1.00
68698;PMS7003;55680;48.850;2.310;2022-08-19T08:57:04;2.00;2.00;1.00
68698;PMS7003;55680;48.850;2.310;2022-08-19T08:59:36;3.75;1.00;1.00
68698;PMS7003;55680;48.850;2.310;2022-08-19T09:02:04;2.75;2.75;1.75
68698;PMS7003;55680;48.850;2.310;2022-08-19T09:04:30;2.00;1.75;1.00
68698;PMS7003;55680;48.850;2.310;2022-08-19T09:10:02;1.25;1.25;1.25
68698;PMS7003;55680;48.850;2.310;2022-08-19T09:13:02;2.00;2.00;2.00
68698;PMS7003;55680;48.850;2.310;2022-08-19T09:15:35;1.50;1.25;1.00
68698;PMS7003;55680;48.850;2.310;2022-08-19T09:18:04;4.00;2.00;1.00
68698;PMS7003;55680;48.850;2.310;2022-08-19T09:20:31;5.50;2.25;2.00
68698;PMS7003;55680;48.850;2.310;2022-08-19T09:22:57;2.50;1.50;1.00
68698;PMS7003;55680;48.850;2.310;2022-08-19T09:25:23;4.00;2.00;2.00
68698;PMS7003;55680;48.850;2.310;2022-08-19T09:27:50;2.00;2.00;1.25
68698;PMS7003;55680;48.850;2.310;2022-08-19T09:30:19;3.50;2.50;1.75
68698;PMS7003;55680;48.850;2.310;2022-08-19T09:32:47;4.00;2.25;1.25
68698;PMS7003;55680;48.850;2.310;2022-08-19T09:35:13;2.00;2.00;2.00
68698;PMS7003;55680;48.850;2.310;2022-08-19T09:37:39;3.50;1.50;1.00
68698;PMS7003;55680;48.850;2.310;2022-08-19T09:40:05;2.00;2.00;1.00
68698;PMS7003;55680;48.850;2.310;2022-08-19T09:42:31;1.50;1.00;1.00
68698;PMS7003;55680;48.850;2.310;2022-08-19T09:44:58;1.50;1.50;1.00
68698;PMS7003;55680;48.850;2.310;2022-08-19T09:47:24;4.25;2.25;2.00
68698;PMS7003;55680;48.850;2.310;2022-08-19T09:49:49;3.50;1.00;1.00
68698;PMS7003;55680;48.850;2.310;2022-08-19T09:52:15;2.00;2.00;1.25
68698;PMS7003;55680;48.850;2.310;2022-08-19T09:54:41;1.25;1.25;1.00
68698;PMS7003;55680;48.850;2.310;2022-08-19T09:57:06;3.75;2.50;1.75
68698;PMS7003;55680;48.850;2.310;2022-08-19T09:59:32;2.00;1.75;1.00
68698;PMS7003;55680;48.850;2.310;2022-08-19T10:01:58;2.75;1.50;1.00
68698;PMS7003;55680;48.850;2.310;2022-08-19T10:04:23;3.00;2.00;1.00
68698;PMS7003;55680;48.850;2.310;2022-08-19T10:07:09;1.00;1.00;1.00
68698;PMS7003;55680;48.850;2.310;2022-08-19T10:09:34;3.00;1.25;0.00
68698;PMS7003;55680;48.850;2.310;2022-08-19T10:12:00;1.50;1.50;1.00
68698;PMS7003;55680;48.850;2.310;2022-08-19T10:14:26;1.00;1.00;1.00
68698;PMS7003;55680;48.850;2.310;2022-08-19T10:16:52;0.50;0.50;0.00
68698;PMS7003;55680;48.850;2.310;2022-08-19T10:19:17;1.00;1.00;1.00
68698;PMS7003;55680;48.850;2.310;2022-08-19T10:21:45;0.00;0.00;0.00
68698;PMS7003;55680;48.850;2.310;2022-08-19T10:24:10;1.75;1.00;0.75
68698;PMS7003;55680;48.850;2.310;2022-08-19T10:26:37;2.00;0.00;0.00
68698;PMS7003;55680;48.850;2.310;2022-08-19T10:29:06;1.75;1.75;1.00
68698;PMS7003;55680;48.850;2.310;2022-08-19T10:31:32;1.00;1.00;1.00
68698;PMS7003;55680;48.850;2.310;2022-08-19T10:33:59;1.00;1.00;0.00
68698;PMS7003;55680;48.850;2.310;2022-08-19T10:36:26;0.50;0.50;0.25
68698;PMS7003;55680;48.850;2.310;2022-08-19T10:38:54;1.00;1.00;1.00
68698;PMS7003;55680;48.850;2.310;2022-08-19T10:41:24;3.75;1.00;0.00
68698;PMS7003;55680;48.850;2.310;2022-08-19T10:43:52;0.25;0.25;0.25
68698;PMS7003;55680;48.850;2.310;2022-08-19T10:46:23;2.75;2.00;1.00
68698;PMS7003;55680;48.850;2.310;2022-08-19T10:48:50;2.00;1.00;1.00
68698;PMS7003;55680;48.850;2.310;2022-08-19T10:51:16;1.00;1.00;1.00
68698;PMS7003;55680;48.850;2.310;2022-08-19T10:54:01;0.00;0.00;0.00
68698;PMS7003;55680;48.850;2.310;2022-08-19T10:56:27;2.00;2.00;1.00
68698;PMS7003;55680;48.850;2.310;2022-08-19T10:59:11;1.50;0.00;0.00
68698;PMS7003;55680;48.850;2.310;2022-08-19T11:01:39;3.00;1.00;1.00
68698;PMS7003;55680;48.850;2.310;2022-08-19T11:04:05;1.75;1.00;1.00
68698;PMS7003;55680;48.850;2.310;2022-08-19T11:06:35;1.00;1.00;1.00
68698;PMS7003;55680;48.850;2.310;2022-08-19T11:09:02;1.50;1.50;1.00
68698;PMS7003;55680;48.850;2.310;2022-08-19T11:11:28;2.00;2.00;1.00
68698;PMS7003;55680;48.850;2.310;2022-08-19T11:13:53;1.00;1.00;1.00
68698;PMS7003;55680;48.850;2.310;2022-08-19T11:16:20;1.50;1.50;0.50
68698;PMS7003;55680;48.850;2.310;2022-08-19T11:18:48;1.00;1.00;1.00
68698;PMS7003;55680;48.850;2.310;2022-08-19T11:21:16;3.00;1.00;1.00
68698;PMS7003;55680;48.850;2.310;2022-08-19T11:23:46;1.00;1.00;1.00
68698;PMS7003;55680;48.850;2.310;2022-08-19T11:26:13;1.25;1.25;1.00
68698;PMS7003;55680;48.850;2.310;2022-08-19T11:28:39;1.00;1.00;1.00
68698;PMS7003;55680;48.850;2.310;2022-08-19T11:31:12;1.00;1.00;1.00
68698;PMS7003;55680;48.850;2.310;2022-08-19T11:33:39;1.00;1.00;1.00
68698;PMS7003;55680;48.850;2.310;2022-08-19T11:36:05;2.75;1.00;1.00
68698;PMS7003;55680;48.850;2.310;2022-08-19T11:38:32;1.00;1.00;0.00
68698;PMS7003;55680;48.850;2.310;2022-08-19T11:40:59;0.50;0.50;0.25
68698;PMS7003;55680;48.850;2.310;2022-08-19T11:43:25;1.00;1.00;1.00
68698;PMS7003;55680;48.850;2.310;2022-08-19T11:45:52;0.00;0.00;0.00
68698;PMS7003;55680;48.850;2.310;2022-08-19T11:48:18;1.00;1.00;1.00
68698;PMS7003;55680;48.850;2.310;2022-08-19T11:50:46;1.25;1.25;1.00
68698;PMS7003;55680;48.850;2.310;2022-08-19T11:53:13;1.00;1.00;0.75
68698;PMS7003;55680;48.850;2.310;2022-08-19T11:55:38;1.25;1.25;1.00
68698;PMS7003;55680;48.850;2.310;2022-08-19T11:58:05;2.00;1.00;1.00
68698;PMS7003;55680;48.850;2.310;2022-08-19T12:00:31;3.00;1.00;1.00
68698;PMS7003;55680;48.850;2.310;2022-08-19T12:02:58;0.75;0.75;0.00
68698;PMS7003;55680;48.850;2.310;2022-08-19T12:05:23;0.25;0.25;0.25
68698;PMS7003;55680;48.850;2.310;2022-08-19T12:07:48;2.00;2.00;1.00
68698;PMS7003;55680;48.850;2.310;2022-08-19T12:10:14;2.50;2.50;1.00
68698;PMS7003;55680;48.850;2.310;2022-08-19T12:12:39;1.00;1.00;1.00
68698;PMS7003;55680;48.850;2.310;2022-08-19T12:15:07;0.00;0.00;0.00
68698;PMS7003;55680;48.850;2.310;2022-08-19T12:17:33;2.00;2.00;1.00
68698;PMS7003;55680;48.850;2.310;2022-08-19T12:19:59;3.00;3.00;1.00
68698;PMS7003;55680;48.850;2.310;2022-08-19T12:22:25;3.00;3.00;1.00
68698;PMS7003;55680;48.850;2.310;2022-08-19T12:24:50;1.50;1.50;1.25
68698;PMS7003;55680;48.850;2.310;2022-08-19T12:27:18;1.00;1.00;1.00
68698;PMS7003;55680;48.850;2.310;2022-08-19T12:29:43;4.00;1.25;1.00
68698;PMS7003;55680;48.850;2.310;2022-08-19T12:32:08;1.75;1.75;1.00
68698;PMS7003;55680;48.850;2.310;2022-08-19T12:34:34;3.00;1.50;1.00
68698;PMS7003;55680;48.850;2.310;2022-08-19T12:37:02;2.00;2.00;1.75
68698;PMS7003;55680;48.850;2.310;2022-08-19T12:39:29;2.00;2.00;1.50
68698;PMS7003;55680;48.850;2.310;2022-08-19T12:41:56;1.50;1.50;1.00
68698;PMS7003;55680;48.850;2.310;2022-08-19T12:44:22;2.00;2.00;1.25
68698;PMS7003;55680;48.850;2.310;2022-08-19T12:46:48;1.00;1.00;0.75
68698;PMS7003;55680;48.850;2.310;2022-08-19T12:49:14;3.50;1.75;1.75
68698;PMS7003;55680;48.850;2.310;2022-08-19T12:51:40;2.00;2.00;1.25
68698;PMS7003;55680;48.850;2.310;2022-08-19T12:54:06;2.25;2.25;1.75
68698;PMS7003;55680;48.850;2.310;2022-08-19T12:56:31;2.25;2.00;2.00
68698;PMS7003;55680;48.850;2.310;2022-08-19T12:59:00;2.50;2.50;2.00
68698;PMS7003;55680;48.850;2.310;2022-08-19T13:01:27;2.00;2.00;1.25
68698;PMS7003;55680;48.850;2.310;2022-08-19T13:03:56;1.75;1.75;1.00
68698;PMS7003;55680;48.850;2.310;2022-08-19T13:06:21;1.00;1.00;1.00
68698;PMS7003;55680;48.850;2.310;2022-08-19T13:08:47;1.00;1.00;1.00
68698;PMS7003;55680;48.850;2.310;2022-08-19T13:11:16;1.75;1.75;1.00
68698;PMS7003;55680;48.850;2.310;2022-08-19T13:13:43;0.75;0.50;0.50
68698;PMS7003;55680;48.850;2.310;2022-08-19T13:16:11;2.00;2.00;1.75
68698;PMS7003;55680;48.850;2.310;2022-08-19T13:18:37;3.00;1.00;1.00
68698;PMS7003;55680;48.850;2.310;2022-08-19T13:21:04;1.25;1.25;1.00
68698;PMS7003;55680;48.850;2.310;2022-08-19T13:23:31;1.00;1.00;0.25
68698;PMS7003;55680;48.850;2.310;2022-08-19T13:25:58;1.00;1.00;1.00
68698;PMS7003;55680;48.850;2.310;2022-08-19T13:28:24;2.00;2.00;1.00
68698;PMS7003;55680;48.850;2.310;2022-08-19T13:30:50;1.25;1.25;1.00
68698;PMS7003;55680;48.850;2.310;2022-08-19T13:33:33;3.50;1.00;1.00
68698;PMS7003;55680;48.850;2.310;2022-08-19T13:36:00;2.50;2.50;2.00
68698;PMS7003;55680;48.850;2.310;2022-08-19T13:38:26;1.00;1.00;0.00
68698;PMS7003;55680;48.850;2.310;2022-08-19T13:40:52;0.75;0.75;0.75
68698;PMS7003;55680;48.850;2.310;2022-08-19T13:43:19;4.50;3.00;2.00
68698;PMS7003;55680;48.850;2.310;2022-08-19T13:45:49;1.00;1.00;1.00
68698;PMS7003;55680;48.850;2.310;2022-08-19T13:48:20;2.00;2.00;1.00
68698;PMS7003;55680;48.850;2.310;2022-08-19T13:50:46;2.00;2.00;2.00
68698;PMS7003;55680;48.850;2.310;2022-08-19T13:53:14;1.00;1.00;1.00
68698;PMS7003;55680;48.850;2.310;2022-08-19T13:55:41;0.50;0.50;0.50
68698;PMS7003;55680;48.850;2.310;2022-08-19T13:58:07;2.00;2.00;1.00
68698;PMS7003;55680;48.850;2.310;2022-08-19T14:00:35;2.00;2.00;1.00
68698;PMS7003;55680;48.850;2.310;2022-08-19T14:03:02;0.00;0.00;0.00
68698;PMS7003;55680;48.850;2.310;2022-08-19T14:05:29;3.00;2.00;1.00
68698;PMS7003;55680;48.850;2.310;2022-08-19T14:07:54;2.50;1.00;1.00
68698;PMS7003;55680;48.850;2.310;2022-08-19T14:10:20;1.00;1.00;1.00
68698;PMS7003;55680;48.850;2.310;2022-08-19T14:12:46;2.00;2.00;1.00
68698;PMS7003;55680;48.850;2.310;2022-08-19T14:15:13;1.00;1.00;0.75
68698;PMS7003;55680;48.850;2.310;2022-08-19T14:17:39;1.00;1.00;0.25
68698;PMS7003;55680;48.850;2.310;2022-08-19T14:20:07;2.00;0.75;0.00
68698;PMS7003;55680;48.850;2.310;2022-08-19T14:22:34;1.75;1.00;1.00
68698;PMS7003;55680;48.850;2.310;2022-08-19T14:25:00;0.50;0.50;0.50
68698;PMS7003;55680;48.850;2.310;2022-08-19T14:27:26;2.00;2.00;0.00